Terminal Aerodrome Forecast
Issued by NWS

Home | Current Version | Previous Version | Text Only | Print | Product List | Glossary On
Versions: 1 2 3 4 5 6 7 8 9 10 11 12 13 14 15 16 17 18 19 20 21 22
000
FTUS41 KALY 012000 AAA
TAFPSF
TAF AMD
KPSF 012002Z 0120/0218 03006KT P6SM SCT008 OVC015
      TEMPO 0120/0124 6SM -SHRA BR BKN008 OVC015
     FM020000 VRB03KT P6SM VCSH OVC015
     FM020600 01005KT 1SM BR OVC009
     FM021500 04008KT P6SM OVC025=

USA.gov is the U.S. government's official web portal to all federal, state and local government web resources and services.